createdAt,value
2023-03-20T00:01:12.740Z,89.48
2023-03-20T00:03:39.178Z,89.10
2023-03-20T00:06:06.151Z,89.22
2023-03-20T00:08:33.030Z,89.34
2023-03-20T00:10:59.575Z,89.20
2023-03-20T00:13:28.293Z,89.72
2023-03-20T00:15:55.020Z,89.57
2023-03-20T00:18:24.799Z,89.76
2023-03-20T00:20:51.962Z,89.45
2023-03-20T00:23:18.633Z,89.33
2023-03-20T00:25:46.890Z,89.61
2023-03-20T00:28:36.297Z,90.88
2023-03-20T00:31:02.928Z,89.36
2023-03-20T00:33:31.301Z,89.47
2023-03-20T00:35:59.038Z,89.38
2023-03-20T00:38:25.889Z,89.49
2023-03-20T00:40:52.591Z,89.40
2023-03-20T00:43:19.177Z,89.55
2023-03-20T00:45:46.659Z,89.54
2023-03-20T00:48:16.854Z,89.81
2023-03-20T00:50:43.593Z,89.46
2023-03-20T00:53:11.850Z,89.63
2023-03-20T00:55:40.038Z,89.53
2023-03-20T00:58:06.817Z,89.25
2023-03-20T01:00:42.778Z,90.26
2023-03-20T01:03:18.674Z,90.21
2023-03-20T01:05:46.348Z,89.70
2023-03-20T01:08:21.419Z,90.16
2023-03-20T01:10:53.003Z,90.28
2023-03-20T01:13:24.005Z,89.76
2023-03-20T01:15:52.492Z,89.50
2023-03-20T01:18:21.457Z,89.71
2023-03-20T01:20:49.033Z,89.60
2023-03-20T01:23:16.353Z,89.47
2023-03-20T01:25:43.077Z,89.54
2023-03-20T01:28:23.204Z,90.14
2023-03-20T01:30:50.582Z,89.33
2023-03-20T01:33:23.854Z,90.15
2023-03-20T01:35:51.490Z,89.52
2023-03-20T01:38:26.276Z,90.44
2023-03-20T01:41:01.816Z,89.98
2023-03-20T01:43:29.515Z,89.36
2023-03-20T01:46:04.130Z,89.25
2023-03-20T01:48:52.634Z,90.21
2023-03-20T01:51:22.739Z,88.38
2023-03-20T01:53:58.813Z,88.90
2023-03-20T01:56:27.064Z,87.79
2023-03-20T01:58:59.991Z,88.35
2023-03-20T02:01:27.881Z,87.78
2023-03-20T02:03:55.757Z,87.67
2023-03-20T02:06:23.846Z,87.45
2023-03-20T02:08:52.417Z,87.39
2023-03-20T02:11:22.493Z,87.46
2023-03-20T02:13:53.021Z,87.73
2023-03-20T02:16:20.360Z,87.71
2023-03-20T02:18:49.767Z,87.91
2023-03-20T02:21:55.362Z,89.12
2023-03-20T02:24:49.907Z,88.69
2023-03-20T02:27:20.673Z,88.42
2023-03-20T02:30:09.118Z,89.54
2023-03-20T02:33:00.526Z,89.63
2023-03-20T02:35:57.925Z,89.46
2023-03-20T02:38:43.937Z,88.70
2023-03-20T02:41:19.479Z,88.96
2023-03-20T02:43:59.327Z,88.93
2023-03-20T02:46:50.855Z,88.87
2023-03-20T02:49:31.760Z,88.46
2023-03-20T02:52:08.257Z,88.15
2023-03-20T02:54:43.966Z,88.35
2023-03-20T02:57:27.256Z,89.65
2023-03-20T03:00:00.369Z,89.43
2023-03-20T03:02:45.030Z,90.16
2023-03-20T03:05:37.691Z,90.80
2023-03-20T03:08:06.799Z,89.35
2023-03-20T03:10:39.131Z,89.61
2023-03-20T03:13:14.477Z,90.16
2023-03-20T03:15:45.675Z,90.21
2023-03-20T03:18:17.560Z,90.02
2023-03-20T03:20:46.683Z,90.19
2023-03-20T03:23:45.577Z,91.23
2023-03-20T03:26:37.029Z,91.00
2023-03-20T03:29:12.255Z,90.05
2023-03-20T03:31:39.180Z,90.11
2023-03-20T03:34:06.454Z,89.99
2023-03-20T03:36:51.681Z,91.40
2023-03-20T03:39:27.145Z,91.45
2023-03-20T03:42:27.847Z,91.67
2023-03-20T03:44:57.930Z,91.16
2023-03-20T03:47:32.802Z,91.34
2023-03-20T03:50:06.661Z,90.79
2023-03-20T03:52:35.918Z,90.71
2023-03-20T03:55:11.420Z,91.40
2023-03-20T03:57:50.415Z,91.75
2023-03-20T04:00:24.981Z,91.71
2023-03-20T04:02:54.608Z,91.09
2023-03-20T04:05:22.810Z,91.48
2023-03-20T04:07:55.351Z,91.72
2023-03-20T04:10:21.868Z,91.33
2023-03-20T04:12:48.383Z,91.32
2023-03-20T04:15:16.877Z,91.31
2023-03-20T04:17:44.668Z,91.20
2023-03-20T04:20:14.997Z,91.47
2023-03-20T04:22:41.685Z,91.51
2023-03-20T04:25:10.315Z,91.16
2023-03-20T04:27:36.759Z,91.15
2023-03-20T04:30:03.367Z,91.25
2023-03-20T04:32:29.794Z,91.54
2023-03-20T04:34:56.301Z,91.65
2023-03-20T04:37:22.722Z,91.89
2023-03-20T04:39:49.283Z,91.62
2023-03-20T04:42:15.769Z,91.64
2023-03-20T04:44:42.204Z,91.62
2023-03-20T04:47:08.640Z,91.57
2023-03-20T04:49:35.519Z,91.62
2023-03-20T04:52:02.052Z,91.81
2023-03-20T04:54:28.509Z,91.47
2023-03-20T04:56:55.036Z,91.61
2023-03-20T04:59:21.618Z,91.39
2023-03-20T05:01:48.117Z,91.41
2023-03-20T05:04:14.592Z,91.40
2023-03-20T05:06:41.328Z,91.36
2023-03-20T05:09:07.772Z,90.76
2023-03-20T05:11:34.333Z,90.47
2023-03-20T05:14:00.766Z,90.01
2023-03-20T05:16:27.476Z,89.61
2023-03-20T05:18:53.998Z,89.81
2023-03-20T05:21:20.597Z,89.92
2023-03-20T05:23:47.128Z,89.68
2023-03-20T05:26:13.609Z,89.61
2023-03-20T05:28:40.183Z,89.66
2023-03-20T05:31:07.215Z,89.80
2023-03-20T05:33:35.560Z,89.59
2023-03-20T05:36:03.868Z,89.29
2023-03-20T05:38:33.527Z,89.33
2023-03-20T05:41:01.074Z,89.32
2023-03-20T05:43:30.520Z,89.40
2023-03-20T05:45:57.012Z,89.46
2023-03-20T05:48:24.017Z,89.41
2023-03-20T05:50:50.592Z,89.22
2023-03-20T05:53:17.132Z,89.52
2023-03-20T05:55:44.707Z,89.53
2023-03-20T05:58:12.162Z,89.63
2023-03-20T06:00:39.580Z,89.36
2023-03-20T06:03:06.981Z,89.12
2023-03-20T06:05:35.488Z,89.38
2023-03-20T06:08:02.863Z,90.01
2023-03-20T06:10:30.482Z,89.70
2023-03-20T06:13:00.821Z,89.62
2023-03-20T06:15:28.362Z,89.65
2023-03-20T06:17:56.234Z,89.28
2023-03-20T06:20:22.981Z,89.59
2023-03-20T06:22:49.513Z,89.40
2023-03-20T06:25:16.288Z,89.38
2023-03-20T06:27:42.778Z,89.44
2023-03-20T06:30:10.363Z,89.79
2023-03-20T06:32:36.945Z,89.24
2023-03-20T06:35:05.766Z,89.31
2023-03-20T06:37:32.681Z,89.20
2023-03-20T06:39:59.508Z,89.23
2023-03-20T06:42:26.093Z,89.12
2023-03-20T06:44:52.694Z,89.14
2023-03-20T06:47:19.349Z,89.11
2023-03-20T06:49:46.166Z,88.80
2023-03-20T06:52:17.900Z,89.05
2023-03-20T06:54:44.860Z,88.47
2023-03-20T06:57:14.642Z,87.82
2023-03-20T06:59:41.693Z,88.40
2023-03-20T07:02:10.531Z,87.43
2023-03-20T07:04:37.251Z,87.04
2023-03-20T07:07:04.298Z,86.68
2023-03-20T07:09:31.037Z,86.47
2023-03-20T07:11:57.588Z,85.95
2023-03-20T07:14:24.080Z,85.89
2023-03-20T07:16:50.609Z,85.58
2023-03-20T07:19:17.931Z,85.26
2023-03-20T07:21:44.755Z,85.10
2023-03-20T07:24:12.076Z,85.28
2023-03-20T07:26:38.628Z,85.28
2023-03-20T07:29:05.392Z,84.88
2023-03-20T07:31:35.591Z,84.86
2023-03-20T07:34:02.024Z,84.76
2023-03-20T07:36:28.579Z,83.78
2023-03-20T07:38:55.081Z,83.87
2023-03-20T07:41:27.780Z,84.11
2023-03-20T07:43:54.235Z,83.83
2023-03-20T07:46:20.749Z,83.59
2023-03-20T07:48:47.336Z,83.44
2023-03-20T07:51:13.746Z,83.37
2023-03-20T07:53:40.266Z,82.69
2023-03-20T07:56:07.144Z,82.38
2023-03-20T07:58:33.706Z,82.52
2023-03-20T08:01:00.391Z,82.30
2023-03-20T08:03:27.188Z,81.84
2023-03-20T08:05:54.203Z,81.69
2023-03-20T08:08:21.018Z,81.42
2023-03-20T08:10:48.189Z,81.34
2023-03-20T08:13:15.620Z,80.66
2023-03-20T08:15:42.073Z,80.32
2023-03-20T08:18:08.649Z,80.13
2023-03-20T08:20:35.198Z,79.10
2023-03-20T08:23:01.867Z,79.01
2023-03-20T08:25:32.509Z,78.59
2023-03-20T08:28:01.207Z,78.38
2023-03-20T08:30:27.993Z,78.45
2023-03-20T08:32:54.497Z,78.03
2023-03-20T08:35:32.634Z,77.90
2023-03-20T08:38:03.237Z,77.26
2023-03-20T08:40:29.869Z,77.10
2023-03-20T08:42:56.611Z,76.95
2023-03-20T08:45:25.865Z,77.03
2023-03-20T08:47:53.003Z,77.22
2023-03-20T08:50:19.647Z,77.22
2023-03-20T08:52:47.010Z,77.30
2023-03-20T08:55:14.814Z,77.78
2023-03-20T08:57:41.512Z,77.04
2023-03-20T09:00:10.446Z,76.66
2023-03-20T09:02:37.232Z,76.46
2023-03-20T09:05:04.065Z,75.73
2023-03-20T09:07:30.737Z,75.53
2023-03-20T09:09:57.161Z,75.44
2023-03-20T09:12:23.956Z,74.81
2023-03-20T09:14:50.485Z,74.63
2023-03-20T09:17:16.979Z,74.08
2023-03-20T09:19:44.723Z,74.63
2023-03-20T09:22:17.961Z,74.86
2023-03-20T09:24:45.539Z,74.45
2023-03-20T09:27:13.944Z,74.56
2023-03-20T09:29:41.333Z,74.39
2023-03-20T09:32:11.827Z,73.98
2023-03-20T09:34:38.446Z,73.73
2023-03-20T09:37:05.057Z,73.31
2023-03-20T09:39:31.642Z,73.08
2023-03-20T09:42:03.738Z,73.78
2023-03-20T09:45:01.553Z,73.90
2023-03-20T09:47:42.490Z,73.89
2023-03-20T09:50:34.496Z,73.72
2023-03-20T09:53:16.733Z,73.57
2023-03-20T09:55:44.464Z,72.54
2023-03-20T09:58:18.420Z,72.59
2023-03-20T10:00:46.756Z,72.02
2023-03-20T10:03:25.113Z,72.18
2023-03-20T10:06:06.831Z,72.45
2023-03-20T10:08:36.377Z,71.45
2023-03-20T10:11:24.183Z,72.63
2023-03-20T10:14:02.130Z,72.61
2023-03-20T10:16:56.239Z,72.07
2023-03-20T10:19:26.168Z,71.00
2023-03-20T10:21:58.421Z,72.03
2023-03-20T10:24:39.233Z,71.82
2023-03-20T10:27:28.362Z,70.71
2023-03-20T10:30:21.369Z,70.51
2023-03-20T10:32:58.301Z,70.11
2023-03-20T10:35:55.236Z,70.23
2023-03-20T10:38:40.085Z,70.40
2023-03-20T10:41:16.101Z,69.71
2023-03-20T10:43:46.127Z,69.61
2023-03-20T10:46:27.487Z,70.06
2023-03-20T10:49:12.169Z,69.91
2023-03-20T10:51:51.607Z,70.01
2023-03-20T10:54:26.755Z,68.49
2023-03-20T10:56:56.596Z,68.02
2023-03-20T10:59:48.402Z,68.12
2023-03-20T11:02:20.670Z,68.46
2023-03-20T11:04:47.508Z,66.92
2023-03-20T11:07:35.059Z,67.36
2023-03-20T11:10:04.634Z,67.03
2023-03-20T11:12:50.489Z,66.10
2023-03-20T11:15:26.678Z,65.57
2023-03-20T11:18:04.715Z,65.76
2023-03-20T11:20:39.138Z,65.40
2023-03-20T11:23:08.476Z,65.73
2023-03-20T11:25:38.780Z,65.04
2023-03-20T11:28:23.980Z,64.77
2023-03-20T11:31:04.353Z,64.74
2023-03-20T11:33:33.560Z,64.46
2023-03-20T11:36:00.468Z,64.36
2023-03-20T11:38:31.277Z,64.66
2023-03-20T11:40:57.842Z,64.43
2023-03-20T11:43:27.475Z,64.67
2023-03-20T11:45:59.648Z,64.68
2023-03-20T11:48:47.590Z,64.29
2023-03-20T11:51:20.132Z,64.94
2023-03-20T11:53:49.328Z,64.15
2023-03-20T11:56:26.036Z,63.81
2023-03-20T11:58:57.830Z,63.10
2023-03-20T12:01:26.341Z,63.75
2023-03-20T12:04:02.308Z,62.89
2023-03-20T12:06:42.643Z,63.03
2023-03-20T12:09:16.022Z,62.46
2023-03-20T12:12:03.540Z,62.95
2023-03-20T12:14:52.375Z,63.19
2023-03-20T12:17:27.721Z,63.11
2023-03-20T12:20:01.727Z,63.12
2023-03-20T12:22:36.475Z,62.78
2023-03-20T12:25:18.094Z,62.09
2023-03-20T12:27:53.246Z,61.43
2023-03-20T12:30:42.754Z,60.73
2023-03-20T12:33:27.547Z,61.30
2023-03-20T12:35:54.671Z,61.30
2023-03-20T12:38:28.267Z,60.95
2023-03-20T12:41:08.217Z,60.71
2023-03-20T12:43:46.896Z,60.26
2023-03-20T12:46:30.901Z,59.91
2023-03-20T12:49:13.070Z,59.53
2023-03-20T12:51:45.532Z,59.21
2023-03-20T12:54:23.701Z,57.63
2023-03-20T12:57:02.211Z,57.36
2023-03-20T12:59:31.563Z,56.79
2023-03-20T13:02:33.668Z,57.50
2023-03-20T13:05:07.811Z,56.35
2023-03-20T13:08:03.846Z,55.96
2023-03-20T13:10:37.089Z,55.57
2023-03-20T13:13:56.326Z,55.85
2023-03-20T13:16:35.468Z,56.21
2023-03-20T13:19:01.924Z,56.26
2023-03-20T13:22:14.234Z,57.76
2023-03-20T13:25:10.668Z,56.27
2023-03-20T13:27:45.953Z,56.37
2023-03-20T13:30:34.239Z,56.58
2023-03-20T13:33:42.064Z,57.38
2023-03-20T13:36:29.843Z,57.58
2023-03-20T13:39:10.229Z,57.35
2023-03-20T13:41:36.844Z,57.68
2023-03-20T13:44:05.788Z,58.15
2023-03-20T13:46:47.261Z,59.22
2023-03-20T13:49:20.526Z,58.48
2023-03-20T13:52:03.491Z,59.22
2023-03-20T13:54:36.194Z,60.35
2023-03-20T13:57:35.564Z,60.78
2023-03-20T14:00:36.501Z,61.35
2023-03-20T14:03:06.098Z,61.63
2023-03-20T14:05:38.855Z,62.33
2023-03-20T14:08:27.185Z,61.94
2023-03-20T14:11:05.873Z,62.50
2023-03-20T14:13:34.394Z,62.60
2023-03-20T14:16:07.174Z,63.59
2023-03-20T14:18:33.717Z,62.51
2023-03-20T14:21:02.667Z,62.95
2023-03-20T14:23:38.049Z,63.58
2023-03-20T14:26:10.090Z,62.58
2023-03-20T14:28:54.058Z,62.42
2023-03-20T14:31:42.255Z,61.11
2023-03-20T14:34:17.186Z,61.11
2023-03-20T14:36:59.949Z,61.45
2023-03-20T14:39:48.173Z,61.65
2023-03-20T14:42:33.032Z,61.75
2023-03-20T14:45:18.352Z,61.83
2023-03-20T14:48:03.698Z,62.14
2023-03-20T14:50:39.955Z,62.48
2023-03-20T14:53:21.838Z,62.68
2023-03-20T14:55:51.283Z,62.89
2023-03-20T14:58:41.420Z,62.74
2023-03-20T15:01:17.129Z,63.47
2023-03-20T15:03:50.133Z,64.03
2023-03-20T15:06:22.809Z,64.03
2023-03-20T15:08:53.312Z,64.02
2023-03-20T15:11:21.960Z,64.64
2023-03-20T15:13:49.695Z,64.91
2023-03-20T15:16:16.941Z,66.17
2023-03-20T15:18:51.722Z,65.43
2023-03-20T15:21:33.289Z,65.34
2023-03-20T15:24:01.467Z,65.49
2023-03-20T15:26:29.745Z,65.68
2023-03-20T15:29:07.917Z,66.66
2023-03-20T15:31:38.136Z,66.80
2023-03-20T15:34:17.998Z,66.66
2023-03-20T15:36:44.656Z,67.09
2023-03-20T15:39:18.942Z,67.74
2023-03-20T15:41:50.444Z,67.76
2023-03-20T15:44:23.815Z,68.58
2023-03-20T15:46:59.633Z,69.05
2023-03-20T15:49:27.966Z,69.45
2023-03-20T15:51:59.515Z,70.51
2023-03-20T15:54:26.135Z,71.00
2023-03-20T15:56:56.104Z,71.74
2023-03-20T15:59:26.686Z,72.67
2023-03-20T16:01:57.316Z,73.42
2023-03-20T16:04:24.533Z,73.50
2023-03-20T16:06:57.236Z,74.22
2023-03-20T16:09:25.892Z,73.63
2023-03-20T16:12:01.368Z,74.50
2023-03-20T16:14:31.575Z,74.20
2023-03-20T16:17:00.749Z,74.19
2023-03-20T16:19:29.154Z,74.17
2023-03-20T16:22:04.622Z,75.11
2023-03-20T16:24:38.394Z,74.46
2023-03-20T16:27:09.739Z,75.14
2023-03-20T16:29:41.061Z,74.53
2023-03-20T16:32:20.691Z,74.82
2023-03-20T16:34:51.355Z,74.48
2023-03-20T16:37:26.105Z,74.59
2023-03-20T16:40:26.969Z,74.33
2023-03-20T16:42:57.384Z,73.98
2023-03-20T16:45:31.139Z,74.41
2023-03-20T16:48:34.153Z,74.09
2023-03-20T16:51:17.613Z,74.23
2023-03-20T16:53:53.940Z,74.47
2023-03-20T16:56:29.670Z,74.59
2023-03-20T16:58:57.094Z,74.24
2023-03-20T17:01:27.034Z,74.46
2023-03-20T17:03:56.510Z,74.67
2023-03-20T17:06:22.991Z,74.72
2023-03-20T17:08:56.004Z,74.95
2023-03-20T17:11:24.715Z,75.22
2023-03-20T17:13:51.309Z,74.94
2023-03-20T17:16:21.512Z,75.60
2023-03-20T17:18:57.907Z,74.66
2023-03-20T17:21:24.469Z,75.15
2023-03-20T17:23:51.305Z,75.50
2023-03-20T17:26:17.796Z,75.44
2023-03-20T17:28:46.442Z,75.97
2023-03-20T17:31:17.464Z,76.29
2023-03-20T17:33:45.615Z,76.09
2023-03-20T17:36:24.424Z,76.15
2023-03-20T17:38:51.025Z,75.52
2023-03-20T17:41:20.771Z,76.45
2023-03-20T17:43:47.651Z,76.58
2023-03-20T17:46:16.884Z,77.02
2023-03-20T17:48:43.404Z,76.54
2023-03-20T17:51:10.128Z,76.91
2023-03-20T17:53:36.588Z,77.12
2023-03-20T17:56:03.048Z,77.32
2023-03-20T17:58:29.568Z,77.59
2023-03-20T18:00:56.251Z,77.91
2023-03-20T18:03:22.980Z,78.24
2023-03-20T18:05:51.190Z,78.46
2023-03-20T18:08:21.287Z,79.15
2023-03-20T18:10:49.614Z,79.11
2023-03-20T18:13:18.640Z,79.25
2023-03-20T18:15:47.420Z,79.35
2023-03-20T18:18:14.028Z,79.33
2023-03-20T18:20:43.469Z,79.40
2023-03-20T18:23:10.227Z,79.33
2023-03-20T18:25:36.784Z,79.69
2023-03-20T18:28:06.073Z,79.89
2023-03-20T18:30:38.723Z,79.78
2023-03-20T18:33:06.074Z,79.90
2023-03-20T18:35:33.327Z,80.03
2023-03-20T18:38:00.207Z,80.13
2023-03-20T18:40:35.493Z,80.96
2023-03-20T18:43:02.992Z,80.31
2023-03-20T18:45:30.766Z,80.15
2023-03-20T18:47:58.031Z,80.20
2023-03-20T18:50:28.811Z,80.82
2023-03-20T18:52:56.994Z,80.61
2023-03-20T18:55:26.232Z,80.63
2023-03-20T18:57:53.313Z,80.65
2023-03-20T19:00:35.886Z,81.38
2023-03-20T19:03:02.777Z,80.63
2023-03-20T19:05:30.239Z,80.75
2023-03-20T19:07:56.809Z,80.98
2023-03-20T19:10:29.776Z,81.32
2023-03-20T19:12:57.358Z,81.19
2023-03-20T19:15:28.736Z,81.68
2023-03-20T19:17:55.944Z,81.49
2023-03-20T19:20:41.665Z,82.30
2023-03-20T19:23:11.106Z,82.14
2023-03-20T19:25:38.642Z,82.15
2023-03-20T19:28:05.742Z,82.39
2023-03-20T19:30:39.833Z,82.90
2023-03-20T19:33:07.498Z,82.61
2023-03-20T19:38:22.111Z,83.14
2023-03-20T19:40:52.990Z,83.54
2023-03-20T19:43:21.630Z,83.61
2023-03-20T19:45:56.481Z,83.82
2023-03-20T19:51:23.180Z,84.56
2023-03-20T19:53:50.598Z,84.01
2023-03-20T19:56:19.558Z,84.38
2023-03-20T19:58:46.586Z,84.34
2023-03-20T20:01:19.214Z,84.89
2023-03-20T20:03:46.491Z,84.28
2023-03-20T20:06:13.273Z,84.37
2023-03-20T20:08:48.362Z,84.40
2023-03-20T20:11:15.668Z,84.32
2023-03-20T20:14:03.773Z,84.24
2023-03-20T20:16:29.806Z,84.22
2023-03-20T20:18:56.520Z,84.25
2023-03-20T20:24:09.516Z,84.04
2023-03-20T20:26:40.455Z,84.17
2023-03-20T20:29:14.526Z,84.16
2023-03-20T20:31:41.309Z,83.92
2023-03-20T20:35:08.530Z,83.88
2023-03-20T20:39:40.787Z,83.83
2023-03-20T20:42:07.582Z,84.12
2023-03-20T20:44:34.010Z,84.05
2023-03-20T20:47:00.613Z,84.31
2023-03-20T20:49:27.575Z,84.13
2023-03-20T20:51:54.122Z,84.49
2023-03-20T20:54:20.870Z,84.60
2023-03-20T20:56:47.457Z,84.88
2023-03-20T20:59:13.904Z,84.72
2023-03-20T21:01:40.440Z,84.88
2023-03-20T21:04:07.071Z,85.08
2023-03-20T21:07:05.549Z,85.17
2023-03-20T21:09:19.985Z,85.32
2023-03-20T21:11:46.670Z,85.27
2023-03-20T21:14:14.212Z,85.62
2023-03-20T21:16:40.656Z,86.13
2023-03-20T21:19:07.614Z,86.05
2023-03-20T21:21:35.069Z,85.83
2023-03-20T21:24:02.283Z,86.23
2023-03-20T21:26:28.742Z,86.52
2023-03-20T21:28:55.637Z,87.06
2023-03-20T21:31:30.284Z,87.33
2023-03-20T21:33:57.750Z,87.52
2023-03-20T21:36:24.618Z,87.40
2023-03-20T21:39:07.475Z,87.91
2023-03-20T21:41:35.766Z,88.08
2023-03-20T21:44:03.579Z,88.46
2023-03-20T21:49:58.715Z,88.88
2023-03-20T21:55:48.136Z,89.10
2023-03-20T22:03:11.830Z,89.46
2023-03-20T22:20:18.513Z,90.27
2023-03-20T22:25:53.026Z,90.64
2023-03-20T22:28:34.358Z,90.84
2023-03-20T22:39:40.869Z,91.41
2023-03-20T22:45:00.598Z,91.49
2023-03-20T22:47:22.415Z,91.71
2023-03-20T22:49:48.903Z,91.76
2023-03-20T22:52:29.037Z,91.53
2023-03-20T22:54:58.682Z,91.55
2023-03-20T22:57:38.493Z,91.80
2023-03-20T23:00:10.369Z,91.83
2023-03-20T23:02:37.190Z,91.53
2023-03-20T23:05:03.914Z,91.66
2023-03-20T23:07:30.573Z,91.67
2023-03-20T23:09:58.179Z,91.45
2023-03-20T23:12:24.644Z,91.47
2023-03-20T23:14:51.545Z,91.92
2023-03-20T23:17:18.758Z,91.79
2023-03-20T23:19:50.325Z,91.85
2023-03-20T23:22:18.965Z,91.89
2023-03-20T23:24:45.716Z,92.00
2023-03-20T23:27:12.184Z,92.10
2023-03-20T23:29:38.622Z,92.16
2023-03-20T23:32:05.813Z,92.18
2023-03-20T23:34:32.407Z,92.31
2023-03-20T23:36:58.838Z,92.41
2023-03-20T23:39:25.230Z,92.51
2023-03-20T23:42:12.007Z,92.58
2023-03-20T23:44:44.104Z,92.45
2023-03-20T23:47:20.398Z,92.53
2023-03-20T23:49:47.848Z,92.48
2023-03-20T23:52:14.767Z,92.51
2023-03-20T23:54:41.636Z,92.84
2023-03-20T23:57:08.298Z,92.61
2023-03-20T23:59:34.786Z,92.84
